Time;durP1;ratioP1;P1;durP2;ratioP2;P2;SDS_P1;SDS_P2;PMS_P1;PMS_P2;Temp;Humidity;BMP_temperature;BMP_pressure;BME280_temperature;BME280_humidity;BME280_pressure;Samples;Min_cycle;Max_cycle;Signal;HPM_P1;HPM_P2
2024/01/11 00:00:06;;;;;;;44.07;28.57;;;-5.70;24.70;;;;;;4993435;28;20494;-69
2024/01/11 00:02:31;;;;;;;47.13;29.42;;;-5.70;25.30;;;;;;4993341;28;20656;-68
2024/01/11 00:04:57;;;;;;;49.90;31.60;;;-5.70;25.20;;;;;;4975197;28;20219;-69
2024/01/11 00:07:22;;;;;;;42.37;29.43;;;-5.70;25.00;;;;;;4992345;28;20970;-69
2024/01/11 00:09:48;;;;;;;47.80;31.00;;;-5.70;25.20;;;;;;4993241;28;20188;-69
2024/01/11 00:12:13;;;;;;;46.37;29.40;;;-5.70;25.60;;;;;;4991342;28;20640;-69
2024/01/11 00:14:40;;;;;;;44.27;28.83;;;-5.70;25.20;;;;;;4992664;28;20307;-69
2024/01/11 00:17:05;;;;;;;51.53;31.00;;;-5.70;24.80;;;;;;4992441;28;20187;-69
2024/01/11 00:19:31;;;;;;;55.93;31.63;;;-5.70;24.80;;;;;;4992385;28;20200;-69
2024/01/11 00:21:57;;;;;;;61.05;33.15;;;-5.70;25.60;;;;;;4992209;28;20176;-69
2024/01/11 00:24:23;;;;;;;48.17;34.50;;;-5.70;25.60;;;;;;4992322;28;20184;-69
2024/01/11 00:26:48;;;;;;;45.97;29.73;;;-5.80;26.20;;;;;;4992371;28;20213;-69
2024/01/11 00:29:14;;;;;;;48.40;30.83;;;-5.80;26.10;;;;;;4992030;28;20192;-69
2024/01/11 00:31:39;;;;;;;55.97;32.27;;;-5.80;26.20;;;;;;4992729;28;20191;-70
2024/01/11 00:34:05;;;;;;;43.70;25.67;;;-5.80;25.60;;;;;;4992132;28;20242;-69
2024/01/11 00:36:32;;;;;;;43.93;26.77;;;-5.80;25.50;;;;;;4992080;28;20263;-69
2024/01/11 00:38:58;;;;;;;59.17;29.98;;;-5.80;24.90;;;;;;4992076;28;20192;-69
2024/01/11 00:41:25;;;;;;;42.63;24.80;;;-5.90;25.20;;;;;;4992040;28;20555;-70
2024/01/11 00:43:50;;;;;;;49.70;27.20;;;-5.90;25.50;;;;;;4992116;28;20172;-68
2024/01/11 00:46:16;;;;;;;49.10;28.00;;;-5.90;25.40;;;;;;4991931;28;20683;-68
2024/01/11 00:48:41;;;;;;;51.03;28.60;;;-5.90;24.40;;;;;;4991745;28;20181;-69
2024/01/11 00:51:07;;;;;;;53.73;30.60;;;-5.90;25.30;;;;;;4991911;28;20188;-69
2024/01/11 00:53:33;;;;;;;49.97;30.13;;;-5.90;24.40;;;;;;4991986;28;20660;-69
2024/01/11 00:56:00;;;;;;;58.60;27.48;;;-5.90;24.80;;;;;;4991922;28;20176;-69
2024/01/11 00:58:25;;;;;;;40.33;25.23;;;-5.90;25.40;;;;;;4992088;28;20256;-69
2024/01/11 01:00:52;;;;;;;39.87;25.20;;;-5.90;25.30;;;;;;4974501;28;20316;-69
2024/01/11 01:03:19;;;;;;;38.78;23.58;;;-5.90;24.70;;;;;;4974270;28;20188;-71
2024/01/11 01:05:44;;;;;;;51.55;26.35;;;-5.90;25.10;;;;;;4991758;28;20296;-69
2024/01/11 01:08:10;;;;;;;41.03;26.07;;;-5.90;24.90;;;;;;4991963;28;20184;-69
2024/01/11 01:10:35;;;;;;;52.90;28.20;;;-6.00;25.30;;;;;;4974352;28;20475;-69
2024/01/11 01:13:02;;;;;;;35.70;23.90;;;-6.00;24.60;;;;;;4994817;28;20188;-69
2024/01/11 01:15:28;;;;;;;45.35;25.92;;;-6.00;25.00;;;;;;4995842;28;20243;-69
2024/01/11 01:17:53;;;;;;;64.50;31.27;;;-6.00;25.00;;;;;;4995511;28;20184;-68
2024/01/11 01:20:19;;;;;;;62.57;31.40;;;-6.00;24.00;;;;;;4994831;28;20192;-68
2024/01/11 01:22:44;;;;;;;45.43;27.07;;;-6.00;24.20;;;;;;4995060;28;20185;-68
2024/01/11 01:25:10;;;;;;;54.83;28.63;;;-6.10;24.70;;;;;;4994917;28;20278;-70
2024/01/11 01:27:36;;;;;;;47.10;30.43;;;-6.00;25.00;;;;;;4977522;28;20204;-69
2024/01/11 01:30:01;;;;;;;53.00;29.63;;;-6.00;25.10;;;;;;4977871;28;20637;-69
2024/01/11 01:32:27;;;;;;;55.83;29.50;;;-6.10;24.40;;;;;;4995219;28;20539;-69
2024/01/11 01:34:52;;;;;;;45.83;29.83;;;-6.10;24.70;;;;;;4995170;28;20267;-69
2024/01/11 01:37:18;;;;;;;47.60;29.50;;;-6.10;25.20;;;;;;4995295;28;20205;-69
2024/01/11 01:39:43;;;;;;;45.17;28.23;;;-6.10;25.20;;;;;;4995446;28;20207;-69
2024/01/11 01:42:09;;;;;;;50.83;28.83;;;-6.10;25.30;;;;;;4995221;28;20291;-70
2024/01/11 01:44:34;;;;;;;45.00;27.10;;;-6.10;25.20;;;;;;4995215;28;20270;-69
2024/01/11 01:47:02;;;;;;;45.03;27.70;;;-6.10;24.80;;;;;;4995191;28;20176;-69
2024/01/11 01:49:28;;;;;;;47.53;28.58;;;-6.10;24.50;;;;;;4994833;28;20227;-69
2024/01/11 01:51:54;;;;;;;40.83;24.53;;;-6.10;24.40;;;;;;4995089;28;20539;-69
2024/01/11 01:54:22;;;;;;;51.92;29.88;;;-6.10;24.50;;;;;;4977733;28;20660;-69
2024/01/11 01:56:48;;;;;;;54.63;29.35;;;-6.10;23.80;;;;;;4995037;28;20567;-68
2024/01/11 01:59:15;;;;;;;38.55;27.23;;;-6.20;23.70;;;;;;4977262;28;20574;-68
2024/01/11 02:01:41;;;;;;;40.42;28.48;;;-6.10;24.50;;;;;;4994797;28;20173;-68
2024/01/11 02:04:06;;;;;;;42.70;26.67;;;-6.20;23.70;;;;;;4994571;28;20181;-69
2024/01/11 02:06:34;;;;;;;54.60;26.57;;;-6.20;23.70;;;;;;4994767;28;20672;-69
2024/01/11 02:09:02;;;;;;;44.08;25.90;;;-6.30;24.40;;;;;;4994857;28;20200;-68
2024/01/11 02:11:28;;;;;;;42.30;26.88;;;-6.20;24.60;;;;;;4994662;28;20640;-69
2024/01/11 02:13:54;;;;;;;45.20;28.00;;;-6.20;24.00;;;;;;4994442;28;20260;-69
2024/01/11 02:16:19;;;;;;;50.03;27.67;;;-6.20;23.70;;;;;;4994545;28;20663;-68
2024/01/11 02:18:45;;;;;;;49.57;27.00;;;-6.20;24.40;;;;;;4994371;28;20267;-68
2024/01/11 02:21:14;;;;;;;50.53;28.03;;;-6.30;23.80;;;;;;4994696;28;20712;-68
2024/01/11 02:23:46;;;;;;;60.20;29.08;;;-6.20;24.90;;;;;;4993808;28;20187;-69
2024/01/11 02:26:14;;;;;;;48.63;30.35;;;-6.20;24.90;;;;;;4994564;28;20219;-69
2024/01/11 02:28:43;;;;;;;49.25;28.40;;;-6.20;24.70;;;;;;4994322;28;20169;-69
2024/01/11 02:31:09;;;;;;;44.63;26.15;;;-6.20;25.60;;;;;;4994185;28;20180;-68
2024/01/11 02:33:36;;;;;;;45.70;24.98;;;-6.10;25.30;;;;;;4994138;28;20608;-68
2024/01/11 02:36:02;;;;;;;45.75;27.75;;;-6.10;25.30;;;;;;4994669;28;20204;-68
2024/01/11 02:38:27;;;;;;;47.50;29.50;;;-6.10;23.90;;;;;;4976609;28;20242;-69
2024/01/11 02:40:54;;;;;;;42.97;25.90;;;-6.30;23.60;;;;;;4994015;28;20196;-69
2024/01/11 02:43:20;;;;;;;45.65;27.85;;;-6.30;25.80;;;;;;4993933;28;20235;-69
2024/01/11 02:45:45;;;;;;;43.20;27.07;;;-6.20;25.50;;;;;;4976495;28;20208;-69
2024/01/11 02:48:11;;;;;;;42.20;26.40;;;-6.10;25.40;;;;;;4993948;28;20185;-68
2024/01/11 02:50:36;;;;;;;50.27;28.87;;;-6.20;25.40;;;;;;5001134;23;20662;-72
2024/01/11 02:53:02;;;;;;;50.10;30.53;;;-6.20;25.50;;;;;;4974837;28;20174;-72
2024/01/11 02:55:28;;;;;;;51.93;29.67;;;-6.20;25.90;;;;;;4974935;28;20181;-72
2024/01/11 02:57:54;;;;;;;37.43;24.10;;;-6.20;25.80;;;;;;4957297;28;20471;-71
2024/01/11 03:00:19;;;;;;;41.07;27.37;;;-6.20;25.90;;;;;;4974654;28;20197;-71
2024/01/11 03:02:45;;;;;;;43.93;26.10;;;-6.20;25.20;;;;;;4974454;28;20177;-71
2024/01/11 03:05:10;;;;;;;45.53;23.93;;;-6.20;25.60;;;;;;4974577;28;20209;-69
2024/01/11 03:07:36;;;;;;;42.90;25.40;;;-6.30;25.20;;;;;;4957324;28;20313;-73
2024/01/11 03:10:01;;;;;;;48.50;29.63;;;-6.30;25.20;;;;;;4957095;28;20287;-70
2024/01/11 03:12:28;;;;;;;47.67;26.83;;;-6.30;24.60;;;;;;4974072;28;20200;-70
2024/01/11 03:14:54;;;;;;;45.50;29.83;;;-6.30;25.30;;;;;;4974128;28;20260;-70
2024/01/11 03:17:19;;;;;;;42.70;27.70;;;-6.20;25.20;;;;;;4974024;28;20589;-69
2024/01/11 03:19:45;;;;;;;48.00;29.57;;;-6.30;25.20;;;;;;4956559;28;20664;-70
2024/01/11 03:22:12;;;;;;;55.10;28.60;;;-6.30;26.30;;;;;;4973804;28;20177;-73
2024/01/11 03:24:41;;;;;;;41.58;29.02;;;-6.30;25.70;;;;;;4973708;28;20213;-70
2024/01/11 03:27:07;;;;;;;41.00;26.00;;;-6.30;25.20;;;;;;4956370;28;20193;-71
2024/01/11 03:29:32;;;;;;;52.80;28.03;;;-6.20;25.60;;;;;;4973690;28;20569;-73
2024/01/11 03:31:58;;;;;;;43.80;28.73;;;-6.30;24.80;;;;;;4973591;28;20264;-70
2024/01/11 03:34:23;;;;;;;52.43;28.17;;;-6.30;25.20;;;;;;4955690;28;20244;-69
2024/01/11 03:36:49;;;;;;;43.00;27.90;;;-6.30;24.60;;;;;;4973641;28;20173;-69
2024/01/11 03:39:14;;;;;;;39.10;24.97;;;-6.40;25.10;;;;;;4973504;28;20190;-68
2024/01/11 03:41:47;;;;;;;43.53;23.33;;;-6.40;24.60;;;;;;4973645;28;20177;-70
2024/01/11 03:44:13;;;;;;;51.40;30.75;;;-6.50;24.30;;;;;;4973601;28;20591;-70
2024/01/11 03:46:38;;;;;;;47.83;28.47;;;-6.50;23.80;;;;;;4956004;28;20209;-70
2024/01/11 03:49:04;;;;;;;42.63;24.43;;;-6.60;23.20;;;;;;4973297;28;20440;-70
2024/01/11 03:51:30;;;;;;;45.27;25.80;;;-6.60;23.90;;;;;;4955988;28;20184;-71
2024/01/11 03:53:55;;;;;;;42.50;24.10;;;-6.60;23.60;;;;;;4973602;28;20414;-70
2024/01/11 03:56:21;;;;;;;42.70;24.50;;;-6.60;24.00;;;;;;4973312;28;20933;-73
2024/01/11 03:58:46;;;;;;;42.77;25.43;;;-6.60;24.60;;;;;;4973105;28;20290;-70
2024/01/11 04:01:12;;;;;;;50.37;24.43;;;-6.60;24.20;;;;;;4973082;28;20185;-71
2024/01/11 04:03:38;;;;;;;48.47;24.33;;;-6.60;23.90;;;;;;4973003;28;20185;-70
2024/01/11 04:06:03;;;;;;;49.50;25.63;;;-6.60;24.00;;;;;;4973128;28;20734;-71
2024/01/11 04:08:29;;;;;;;44.83;25.43;;;-6.60;23.70;;;;;;4955723;28;20420;-72
2024/01/11 04:10:54;;;;;;;52.83;28.23;;;-6.60;23.70;;;;;;4973028;28;20437;-69
2024/01/11 04:13:20;;;;;;;48.80;25.80;;;-6.50;23.50;;;;;;4955541;28;20268;-70
2024/01/11 04:15:46;;;;;;;48.00;24.77;;;-6.60;23.30;;;;;;4972996;28;20196;-70
2024/01/11 04:18:12;;;;;;;40.77;24.87;;;-6.50;23.50;;;;;;4972974;28;20184;-70
2024/01/11 04:20:37;;;;;;;38.77;23.67;;;-6.60;22.20;;;;;;4972792;28;20440;-71
2024/01/11 04:23:03;;;;;;;52.43;27.47;;;-6.60;22.90;;;;;;4955228;28;20184;-69
2024/01/11 04:25:28;;;;;;;52.77;24.30;;;-6.60;22.20;;;;;;4972801;28;20215;-69
2024/01/11 04:27:54;;;;;;;35.43;22.93;;;-6.70;22.50;;;;;;4972697;28;20177;-70
2024/01/11 04:30:19;;;;;;;45.93;24.63;;;-6.70;21.80;;;;;;4955464;28;20211;-70
2024/01/11 04:32:45;;;;;;;40.00;25.50;;;-6.70;21.80;;;;;;4972772;28;20173;-68
2024/01/11 04:35:10;;;;;;;40.93;21.53;;;-6.80;21.80;;;;;;4955464;28;20608;-68
2024/01/11 04:37:36;;;;;;;44.13;22.53;;;-6.90;21.90;;;;;;4955426;28;20673;-69
2024/01/11 04:40:03;;;;;;;34.83;22.80;;;-6.80;22.00;;;;;;4955135;28;20635;-71
2024/01/11 04:42:29;;;;;;;41.25;23.88;;;-6.90;21.90;;;;;;4955089;28;20181;-69
2024/01/11 04:44:54;;;;;;;45.93;26.57;;;-6.80;22.00;;;;;;4972467;28;20572;-69
2024/01/11 04:47:20;;;;;;;57.33;24.20;;;-6.90;21.90;;;;;;4955145;28;20188;-70
2024/01/11 04:49:46;;;;;;;38.80;23.87;;;-6.90;22.80;;;;;;4954970;28;20219;-71
2024/01/11 04:52:11;;;;;;;53.53;27.57;;;-6.80;23.20;;;;;;4972359;28;20176;-69
2024/01/11 04:54:37;;;;;;;39.83;26.03;;;-6.80;22.80;;;;;;4972593;28;20632;-70
2024/01/11 04:57:03;;;;;;;37.47;24.80;;;-6.80;22.50;;;;;;4972499;28;20214;-70
2024/01/11 04:59:29;;;;;;;40.83;24.47;;;-6.80;22.50;;;;;;4972575;28;20200;-69
2024/01/11 05:01:55;;;;;;;43.53;24.10;;;-6.80;22.80;;;;;;4972366;28;20413;-69
2024/01/11 05:04:20;;;;;;;43.87;24.57;;;-6.80;22.60;;;;;;4955036;28;20443;-70
2024/01/11 05:06:46;;;;;;;50.00;26.30;;;-6.80;22.10;;;;;;4972496;28;20169;-70
2024/01/11 05:09:11;;;;;;;43.67;24.00;;;-6.80;22.20;;;;;;4954946;28;20287;-69
2024/01/11 05:11:37;;;;;;;44.53;25.93;;;-6.80;22.10;;;;;;4955081;28;20184;-70
2024/01/11 05:14:02;;;;;;;39.03;25.47;;;-6.80;22.70;;;;;;4955205;28;20174;-71
2024/01/11 05:16:29;;;;;;;45.13;26.97;;;-6.90;22.60;;;;;;4955101;28;20251;-71
2024/01/11 05:18:56;;;;;;;37.42;24.40;;;-6.90;22.70;;;;;;4972660;28;20195;-71
2024/01/11 05:21:22;;;;;;;37.85;24.63;;;-6.90;22.90;;;;;;4972787;28;20177;-73
2024/01/11 05:23:48;;;;;;;42.53;23.17;;;-6.90;22.80;;;;;;4972445;28;20256;-71
2024/01/11 05:26:18;;;;;;;40.90;24.60;;;-6.90;22.30;;;;;;4972441;28;20458;-71
2024/01/11 05:28:43;;;;;;;42.85;22.83;;;-6.90;22.30;;;;;;4955127;28;20483;-70
2024/01/11 05:31:10;;;;;;;46.23;26.63;;;-6.90;22.60;;;;;;4972497;28;20199;-70
2024/01/11 05:33:36;;;;;;;44.83;25.05;;;-6.90;22.50;;;;;;4972212;28;20181;-71
2024/01/11 05:36:02;;;;;;;36.07;22.10;;;-6.90;22.50;;;;;;4954916;28;20270;-70
2024/01/11 05:38:27;;;;;;;37.17;23.47;;;-6.90;22.30;;;;;;4972321;28;20506;-70
2024/01/11 05:40:53;;;;;;;41.97;23.30;;;-6.90;22.60;;;;;;4954695;28;20511;-71
2024/01/11 05:43:19;;;;;;;52.10;23.97;;;-6.90;21.00;;;;;;4971829;28;20188;-72
2024/01/11 05:45:44;;;;;;;37.30;23.67;;;-7.00;21.30;;;;;;4954684;28;20209;-69
2024/01/11 05:48:10;;;;;;;41.73;23.73;;;-7.00;21.70;;;;;;4972137;28;20259;-70
2024/01/11 05:50:36;;;;;;;45.33;22.42;;;-7.00;22.10;;;;;;4972088;28;20291;-70
2024/01/11 05:53:02;;;;;;;39.30;23.97;;;-7.10;22.70;;;;;;4954463;28;20666;-71
2024/01/11 05:55:28;;;;;;;40.23;23.03;;;-7.00;22.20;;;;;;4955229;28;20428;-71
2024/01/11 05:57:54;;;;;;;47.33;22.03;;;-7.00;22.00;;;;;;4973114;28;20912;-70
2024/01/11 06:00:19;;;;;;;37.65;24.17;;;-7.00;21.70;;;;;;4975506;28;20283;-69
2024/01/11 06:02:45;;;;;;;38.73;22.27;;;-7.00;20.80;;;;;;4957883;28;20271;-69
2024/01/11 06:05:12;;;;;;;48.90;24.37;;;-7.00;21.90;;;;;;4975325;28;20739;-72
2024/01/11 06:07:38;;;;;;;41.85;27.00;;;-7.00;20.70;;;;;;4975311;28;20169;-69
2024/01/11 06:10:05;;;;;;;37.60;26.20;;;-7.00;21.30;;;;;;4975152;28;20197;-71
2024/01/11 06:12:31;;;;;;;42.00;23.45;;;-7.00;21.30;;;;;;4973686;28;20207;-70
2024/01/11 06:14:57;;;;;;;37.33;22.50;;;-7.00;21.80;;;;;;4977145;28;20264;-73
2024/01/11 06:17:23;;;;;;;33.13;21.13;;;-7.00;21.40;;;;;;4976633;28;20503;-71
2024/01/11 06:19:49;;;;;;;37.50;21.77;;;-7.10;20.70;;;;;;4975298;28;20232;-71
2024/01/11 06:22:14;;;;;;;44.73;24.27;;;-7.10;20.60;;;;;;4957598;28;20431;-72
2024/01/11 06:24:40;;;;;;;46.67;23.67;;;-7.00;20.70;;;;;;4974984;28;20212;-72
2024/01/11 06:27:06;;;;;;;47.57;23.43;;;-7.00;20.30;;;;;;4958006;28;20189;-70
2024/01/11 06:29:31;;;;;;;39.23;23.50;;;-7.00;20.70;;;;;;4974980;28;20644;-69
2024/01/11 06:31:57;;;;;;;47.63;25.67;;;-7.10;20.70;;;;;;4974980;28;20179;-70
2024/01/11 06:34:23;;;;;;;40.67;22.00;;;-7.00;19.70;;;;;;4957492;28;20516;-69
2024/01/11 06:36:48;;;;;;;37.87;23.50;;;-7.00;19.80;;;;;;4974732;28;20268;-70
2024/01/11 06:39:14;;;;;;;40.87;24.90;;;-7.00;19.60;;;;;;4957526;28;20203;-69
2024/01/11 06:41:39;;;;;;;47.77;25.60;;;-7.00;20.40;;;;;;4974831;28;20350;-70
2024/01/11 06:44:05;;;;;;;44.20;24.77;;;-7.00;18.90;;;;;;4974747;28;20686;-70
2024/01/11 06:46:30;;;;;;;41.80;25.80;;;-7.00;20.00;;;;;;4974728;28;20214;-70
2024/01/11 06:48:56;;;;;;;42.00;23.20;;;-6.90;20.70;;;;;;4956886;28;20294;-70
2024/01/11 06:51:23;;;;;;;38.50;25.83;;;-6.90;20.10;;;;;;4974374;28;20262;-70
2024/01/11 06:53:49;;;;;;;43.45;24.35;;;-7.00;18.70;;;;;;4956601;28;20270;-70
2024/01/11 06:56:16;;;;;;;41.17;23.70;;;-7.10;18.30;;;;;;4974684;28;20169;-69
2024/01/11 06:58:41;;;;;;;39.03;23.05;;;-7.10;19.30;;;;;;4974321;28;20547;-69
2024/01/11 07:01:07;;;;;;;46.63;24.97;;;-7.00;20.70;;;;;;4974304;28;20197;-70
2024/01/11 07:03:33;;;;;;;42.37;23.13;;;-7.00;20.70;;;;;;4974142;28;20424;-70
2024/01/11 07:05:58;;;;;;;43.33;29.43;;;-6.90;20.50;;;;;;4974353;28;20212;-70
2024/01/11 07:08:24;;;;;;;46.47;25.03;;;-7.00;19.10;;;;;;4974360;28;20545;-70
2024/01/11 07:10:49;;;;;;;36.30;21.70;;;-7.10;19.60;;;;;;4974308;28;20193;-69
2024/01/11 07:13:16;;;;;;;45.23;24.47;;;-7.00;20.70;;;;;;4974252;28;20228;-69
2024/01/11 07:15:43;;;;;;;44.20;25.88;;;-7.00;20.70;;;;;;4974574;28;20204;-69
2024/01/11 07:18:09;;;;;;;46.08;28.95;;;-6.90;20.80;;;;;;4974148;28;20177;-68
2024/01/11 07:20:34;;;;;;;45.47;25.13;;;-6.90;20.70;;;;;;4973866;28;20247;-69
2024/01/11 07:23:00;;;;;;;44.10;25.23;;;-6.90;20.70;;;;;;4973886;28;20188;-68
2024/01/11 07:25:26;;;;;;;43.03;26.90;;;-6.90;20.70;;;;;;4973856;28;20215;-68
2024/01/11 07:27:51;;;;;;;37.47;24.30;;;-6.90;20.80;;;;;;4973934;28;20177;-68
2024/01/11 07:30:20;;;;;;;38.07;23.80;;;-6.90;20.70;;;;;;4971173;28;20271;-69
2024/01/11 07:32:46;;;;;;;43.30;25.88;;;-6.80;20.80;;;;;;4970789;28;20439;-69
2024/01/11 07:35:12;;;;;;;39.03;25.93;;;-6.80;20.90;;;;;;4971039;28;20712;-67
2024/01/11 07:37:38;;;;;;;45.85;26.10;;;-6.70;20.90;;;;;;4970557;28;20181;-68
2024/01/11 07:40:09;;;;;;;51.40;25.87;;;-6.70;20.90;;;;;;4969542;28;20193;-71
2024/01/11 07:42:35;;;;;;;46.05;26.88;;;-6.70;20.90;;;;;;4969483;28;20512;-71
2024/01/11 07:45:01;;;;;;;42.97;28.20;;;-6.60;22.40;;;;;;4953035;28;20296;-71
2024/01/11 07:47:26;;;;;;;52.60;28.67;;;-6.40;23.20;;;;;;4970033;28;20428;-69
2024/01/11 07:49:52;;;;;;;48.00;28.50;;;-6.30;23.50;;;;;;4951866;28;20221;-69
2024/01/11 07:52:18;;;;;;;54.57;28.80;;;-6.20;23.70;;;;;;4970063;28;20189;-70
2024/01/11 07:54:43;;;;;;;37.50;25.30;;;-6.10;23.30;;;;;;4969434;28;20186;-69
2024/01/11 07:57:09;;;;;;;44.43;27.67;;;-6.10;22.70;;;;;;4969559;28;20849;-70
2024/01/11 07:59:38;;;;;;;61.30;30.83;;;-6.00;23.60;;;;;;4952824;28;20213;-69
2024/01/11 08:02:03;;;;;;;49.80;28.67;;;-5.90;23.10;;;;;;4952036;28;20623;-71
2024/01/11 08:04:30;;;;;;;52.73;34.23;;;-5.80;22.40;;;;;;4968925;28;20209;-70
2024/01/11 08:06:56;;;;;;;45.78;28.83;;;-5.80;21.10;;;;;;4971486;28;20591;-70
2024/01/11 08:09:21;;;;;;;50.72;28.55;;;-5.80;20.50;;;;;;4953718;28;20684;-70
2024/01/11 08:11:47;;;;;;;44.23;26.40;;;-5.70;19.40;;;;;;4970903;28;20265;-71
2024/01/11 08:14:13;;;;;;;49.33;26.23;;;-5.80;18.70;;;;;;4972264;28;20185;-69
2024/01/11 08:16:39;;;;;;;52.17;30.38;;;-5.70;19.40;;;;;;4953353;28;20627;-70
2024/01/11 08:19:05;;;;;;;41.70;24.37;;;-5.60;19.00;;;;;;4952215;28;20308;-69
2024/01/11 08:21:31;;;;;;;47.38;27.15;;;-5.50;19.70;;;;;;4973088;28;20177;-68
2024/01/11 08:23:57;;;;;;;41.83;23.83;;;;;;;;;;4975788;28;20205;-69
2024/01/11 08:26:23;;;;;;;50.33;27.05;;;;;;;;;;4958328;28;20213;-70
2024/01/11 08:28:49;;;;;;;43.85;25.65;;;;;;;;;;4974014;28;20232;-70
2024/01/11 08:31:15;;;;;;;36.90;23.53;;;;;;;;;;4973769;28;20181;-71
2024/01/11 08:33:41;;;;;;;41.03;27.15;;;;;;;;;;4963359;28;20436;-71
2024/01/11 08:36:07;;;;;;;47.35;27.15;;;;;;;;;;4963955;28;20182;-69
2024/01/11 08:38:33;;;;;;;49.53;28.85;;;;;;;;;;4962445;28;20185;-70
2024/01/11 08:40:59;;;;;;;43.90;27.23;;;;;;;;;;4963596;28;20210;-71
2024/01/11 08:43:26;;;;;;;43.88;27.75;;;-5.40;19.30;;;;;;4955322;29;20174;-70
2024/01/11 08:45:52;;;;;;;51.80;31.63;;;-4.90;18.40;;;;;;4955787;29;20213;-71
2024/01/11 08:48:18;;;;;;;47.03;28.13;;;;;;;;;;4958622;29;20178;-71
2024/01/11 08:50:43;;;;;;;50.17;29.30;;;-4.70;19.90;;;;;;4975118;28;20223;-70
2024/01/11 08:53:09;;;;;;;48.40;30.47;;;-4.60;19.30;;;;;;4977707;28;20427;-69
2024/01/11 08:55:34;;;;;;;51.50;30.23;;;-4.50;20.80;;;;;;4974621;28;20605;-71
2024/01/11 08:58:00;;;;;;;53.63;29.77;;;-4.40;21.30;;;;;;4974669;28;20196;-70
2024/01/11 09:00:27;;;;;;;54.37;30.23;;;-4.30;21.00;;;;;;4953657;28;20205;-70
2024/01/11 09:02:52;;;;;;;50.20;31.48;;;-4.10;20.00;;;;;;4955514;28;20213;-71
2024/01/11 09:05:18;;;;;;;53.70;30.77;;;-3.90;21.10;;;;;;4972281;28;20702;-70
2024/01/11 09:07:43;;;;;;;50.50;28.73;;;-3.90;20.10;;;;;;4972898;28;20261;-69
2024/01/11 09:10:10;;;;;;;54.73;32.60;;;-3.90;19.60;;;;;;4954519;28;20296;-71
2024/01/11 09:12:36;;;;;;;50.88;28.63;;;-3.80;18.60;;;;;;4972058;28;20212;-69
2024/01/11 09:15:03;;;;;;;43.17;29.30;;;-3.70;16.70;;;;;;4972874;28;20181;-69
2024/01/11 09:17:28;;;;;;;55.80;32.50;;;-3.50;15.20;;;;;;4955585;28;20193;-69
2024/01/11 09:19:54;;;;;;;46.90;29.53;;;-3.40;15.10;;;;;;4974627;28;20209;-70
2024/01/11 09:22:19;;;;;;;43.10;27.40;;;-3.40;14.80;;;;;;4966812;28;20192;-69
2024/01/11 09:24:45;;;;;;;44.73;30.37;;;-3.30;13.40;;;;;;4953054;28;20265;-70
2024/01/11 09:27:11;;;;;;;58.57;31.50;;;-3.20;13.30;;;;;;4955546;28;20194;-70
2024/01/11 09:29:36;;;;;;;49.00;29.50;;;-3.20;14.20;;;;;;4949978;28;20201;-70
2024/01/11 09:32:02;;;;;;;43.37;29.10;;;-3.20;14.90;;;;;;4969569;28;20214;-70
2024/01/11 09:34:28;;;;;;;49.17;29.50;;;-3.10;12.80;;;;;;4973397;28;20198;-70
2024/01/11 09:36:53;;;;;;;55.80;31.33;;;-3.00;15.00;;;;;;4942986;28;20552;-71
2024/01/11 09:39:19;;;;;;;47.50;29.03;;;-2.90;15.70;;;;;;4972217;28;20206;-71
2024/01/11 09:41:55;;;;;;;58.73;30.97;;;-2.90;13.00;;;;;;4973000;28;20527;-70
2024/01/11 09:44:21;;;;;;;53.72;31.17;;;-2.70;12.20;;;;;;4955075;28;20432;-70
2024/01/11 09:46:47;;;;;;;53.67;29.87;;;-2.50;12.30;;;;;;4971509;28;20270;-70
2024/01/11 09:49:13;;;;;;;54.83;30.03;;;-2.30;12.70;;;;;;4971771;28;20459;-70
2024/01/11 09:51:43;;;;;;;62.55;32.15;;;-2.30;10.30;;;;;;4961439;28;20486;-71
2024/01/11 09:54:10;;;;;;;43.33;28.05;;;-2.10;8.80;;;;;;4962906;28;20185;-69
2024/01/11 09:56:36;;;;;;;43.97;29.02;;;-2.00;6.80;;;;;;4969777;28;20193;-69
2024/01/11 09:59:06;;;;;;;47.10;29.02;;;-1.90;5.10;;;;;;4971235;28;20267;-68
2024/01/11 10:01:31;;;;;;;44.50;28.55;;;-2.10;3.20;;;;;;4975602;28;20239;-70
2024/01/11 10:03:57;;;;;;;42.53;27.77;;;-2.00;3.00;;;;;;4959267;28;20214;-70
2024/01/11 10:06:25;;;;;;;46.87;29.97;;;-2.20;3.20;;;;;;4977323;28;20569;-70
2024/01/11 10:08:51;;;;;;;47.05;27.60;;;-2.30;2.90;;;;;;4979796;28;20943;-69
2024/01/11 10:11:17;;;;;;;51.93;28.80;;;-2.30;3.40;;;;;;4975627;28;20183;-69
2024/01/11 10:13:42;;;;;;;52.63;28.43;;;-2.50;2.40;;;;;;4972846;28;20196;-70
2024/01/11 10:16:15;;;;;;;41.07;26.93;;;-2.60;4.10;;;;;;4971199;28;20517;-69
2024/01/11 10:18:41;;;;;;;54.20;26.77;;;-2.60;4.80;;;;;;4970706;28;20192;-70
2024/01/11 10:21:07;;;;;;;42.30;27.95;;;-2.60;5.90;;;;;;4969505;28;20586;-69
2024/01/11 10:23:41;;;;;;;51.53;28.50;;;-2.40;4.80;;;;;;4971586;28;20200;-70
2024/01/11 10:26:09;;;;;;;52.50;30.77;;;-2.40;4.10;;;;;;4971270;28;20222;-68
2024/01/11 10:28:37;;;;;;;45.33;26.95;;;-2.30;5.60;;;;;;4953152;28;20195;-68
2024/01/11 10:31:06;;;;;;;45.60;27.30;;;-2.20;3.90;;;;;;4970130;28;20229;-68
2024/01/11 10:33:33;;;;;;;47.50;29.00;;;-2.20;3.20;;;;;;4953878;28;20196;-71
2024/01/11 10:36:00;;;;;;;51.97;31.45;;;-2.30;3.30;;;;;;4977434;28;20440;-69
2024/01/11 10:38:26;;;;;;;42.80;28.92;;;-2.40;3.80;;;;;;4990162;28;20263;-69
2024/01/11 10:40:55;;;;;;;43.15;26.15;;;-2.40;4.80;;;;;;4973279;28;20204;-69
2024/01/11 10:43:22;;;;;;;47.00;30.83;;;-2.40;4.20;;;;;;4973272;28;20609;-71
2024/01/11 10:45:56;;;;;;;52.38;28.98;;;-2.20;4.90;;;;;;4975016;28;20230;-69
2024/01/11 10:48:24;;;;;;;55.60;31.45;;;-2.10;3.10;;;;;;4975083;28;20195;-70
2024/01/11 10:50:57;;;;;;;47.42;32.53;;;-2.00;3.80;;;;;;4957091;28;20715;-70
2024/01/11 10:53:41;;;;;;;47.25;30.65;;;-2.20;4.00;;;;;;4974646;28;20187;-70
2024/01/11 10:56:09;;;;;;;50.67;31.02;;;-2.30;3.70;;;;;;4974801;28;20182;-68
2024/01/11 10:58:35;;;;;;;47.03;31.00;;;-2.00;3.70;;;;;;4957147;28;20184;-68
2024/01/11 11:01:04;;;;;;;45.10;32.10;;;-1.90;2.40;;;;;;4974548;28;20283;-69
2024/01/11 11:03:33;;;;;;;51.53;32.05;;;-1.90;1.60;;;;;;4974295;28;20177;-69
2024/01/11 11:06:00;;;;;;;51.13;32.38;;;-1.90;2.50;;;;;;4974200;28;20241;-69
2024/01/11 11:08:26;;;;;;;47.05;29.75;;;-1.80;1.60;;;;;;4974292;28;20194;-69
2024/01/11 11:11:04;;;;;;;48.83;31.48;;;-1.40;1.00;;;;;;4971547;28;20209;-69
2024/01/11 11:13:31;;;;;;;52.80;29.90;;;-1.30;1.00;;;;;;4974073;28;20669;-69
2024/01/11 11:15:59;;;;;;;62.10;33.25;;;-1.40;1.00;;;;;;4974061;28;20242;-70
2024/01/11 11:18:25;;;;;;;49.67;28.65;;;-1.70;1.00;;;;;;4974356;28;20189;-68
2024/01/11 11:20:51;;;;;;;54.10;32.70;;;-1.70;2.30;;;;;;4974467;28;20208;-68
2024/01/11 11:23:18;;;;;;;48.22;30.98;;;-1.50;1.30;;;;;;4955852;28;20278;-69
2024/01/11 11:25:48;;;;;;;55.28;31.65;;;-1.50;1.00;;;;;;4969494;28;20212;-70
2024/01/11 11:28:15;;;;;;;51.85;30.63;;;-1.80;1.00;;;;;;4974152;28;20181;-70
2024/01/11 11:30:42;;;;;;;43.92;28.65;;;-1.40;1.00;;;;;;4973956;28;20204;-69
2024/01/11 11:33:18;;;;;;;46.70;30.98;;;-1.20;1.00;;;;;;4973791;28;20173;-70
2024/01/11 11:35:46;;;;;;;42.42;28.73;;;-1.20;1.00;;;;;;4956023;28;20198;-69
2024/01/11 11:38:19;;;;;;;44.45;31.13;;;-1.20;1.00;;;;;;4973638;28;20206;-70
2024/01/11 11:40:47;;;;;;;41.60;28.88;;;;;;;;;;4973735;28;20214;-69
2024/01/11 11:43:13;;;;;;;50.53;29.35;;;-1.40;1.00;;;;;;4973454;28;20186;-70
2024/01/11 11:45:41;;;;;;;53.70;29.60;;;-1.70;1.10;;;;;;4973289;28;20299;-71
2024/01/11 11:48:31;;;;;;;50.55;31.17;;;-1.70;2.90;;;;;;4973690;28;20549;-72
2024/01/11 11:51:05;;;;;;;50.72;33.63;;;-1.80;1.30;;;;;;4973363;28;20215;-69
2024/01/11 11:53:33;;;;;;;45.15;29.92;;;-2.10;1.70;;;;;;4973251;28;20176;-69
2024/01/11 11:56:00;;;;;;;45.55;29.85;;;-2.10;2.70;;;;;;4972539;28;20195;-70
2024/01/11 11:58:27;;;;;;;52.90;31.27;;;-1.90;3.40;;;;;;4973271;28;20188;-71
2024/01/11 12:00:54;;;;;;;53.47;33.35;;;-2.10;4.10;;;;;;4955513;28;20298;-70
2024/01/11 12:03:20;;;;;;;56.20;33.80;;;-1.90;3.70;;;;;;4972760;28;20680;-70
2024/01/11 12:05:45;;;;;;;51.83;33.50;;;-1.70;2.90;;;;;;4973106;28;20231;-70
2024/01/11 12:08:11;;;;;;;49.97;34.53;;;-1.80;2.90;;;;;;4955652;28;20648;-70
2024/01/11 12:10:37;;;;;;;52.73;31.67;;;-1.80;1.90;;;;;;4973325;28;20212;-70
2024/01/11 12:13:02;;;;;;;52.57;31.90;;;-1.80;2.40;;;;;;4956212;28;20514;-72
2024/01/11 12:15:29;;;;;;;46.30;33.10;;;-1.80;2.90;;;;;;4955793;28;20626;-70
2024/01/11 12:17:58;;;;;;;49.13;31.05;;;-1.70;2.90;;;;;;4955598;28;20658;-69
2024/01/11 12:20:24;;;;;;;49.72;30.30;;;-1.80;3.70;;;;;;4972705;28;20215;-71
2024/01/11 12:22:50;;;;;;;47.07;31.60;;;-1.70;4.10;;;;;;4972694;28;20180;-69
2024/01/11 12:25:15;;;;;;;45.70;29.10;;;-1.60;4.10;;;;;;4973013;28;20216;-70
2024/01/11 12:27:42;;;;;;;42.47;28.10;;;-1.50;3.90;;;;;;4972968;28;20180;-70